Time;durP1;ratioP1;P1;durP2;ratioP2;P2;SDS_P1;SDS_P2;PMS_P1;PMS_P2;Temp;Humidity;BMP_temperature;BMP_pressure;BME280_temperature;BME280_humidity;BME280_pressure;Samples;Min_cycle;Max_cycle;Signal;HPM_P1;HPM_P2
2021/04/01 00:03:51;;;;;;;;;;;12.20;99.90;;;;;;13177920;22;19941;-84
2021/04/01 00:08:52;;;;;;;;;;;12.10;99.90;;;;;;13152798;22;19964;-84
2021/04/01 00:13:53;;;;;;;;;;;12.10;99.90;;;;;;13125952;22;19918;-84
2021/04/01 00:18:55;;;;;;;;;;;12.10;99.90;;;;;;13179255;22;19934;-84
2021/04/01 00:23:56;;;;;;;;;;;12.00;99.90;;;;;;13180014;22;19957;-84
2021/04/01 00:28:57;;;;;;;;;;;12.00;99.90;;;;;;13152698;22;19918;-84
2021/04/01 00:33:58;;;;;;;;;;;12.00;99.90;;;;;;13126363;22;19918;-84
2021/04/01 00:39:00;;;;;;;;;;;12.00;99.90;;;;;;13126408;22;19929;-83
2021/04/01 00:44:03;;;;;;;;;;;11.90;99.90;;;;;;13156259;22;19922;-84
2021/04/01 00:49:04;;;;;;;;;;;12.10;99.90;;;;;;13156473;22;19981;-83
2021/04/01 00:54:05;;;;;;;;;;;12.10;99.90;;;;;;13156151;22;19993;-83
2021/04/01 00:59:06;;;;;;;;;;;12.00;99.90;;;;;;13130115;22;19992;-84
2021/04/01 01:04:09;;;;;;;;;;;11.80;99.90;;;;;;13183096;22;19924;-83
2021/04/01 01:09:11;;;;;;;;;;;11.90;99.90;;;;;;13155082;22;20326;-84
2021/04/01 01:14:12;;;;;;;;;;;12.20;99.90;;;;;;13129355;22;20319;-83
2021/04/01 01:19:14;;;;;;;;;;;12.40;99.90;;;;;;13156652;22;19923;-84
2021/04/01 01:24:15;;;;;;;;;;;12.10;99.90;;;;;;13129083;22;19958;-84
2021/04/01 01:29:16;;;;;;;;;;;12.30;99.90;;;;;;13183156;22;19985;-84
2021/04/01 01:34:18;;;;;;;;;;;12.00;99.90;;;;;;13128757;22;19922;-84
2021/04/01 01:39:19;;;;;;;;;;;12.00;99.90;;;;;;13183008;22;19926;-84
2021/04/01 01:44:21;;;;;;;;;;;11.90;99.90;;;;;;13154280;22;19993;-83
2021/04/01 01:49:22;;;;;;;;;;;11.90;99.90;;;;;;13129208;22;19922;-83
2021/04/01 01:54:23;;;;;;;;;;;11.90;99.90;;;;;;13128775;22;19986;-84
2021/04/01 01:59:25;;;;;;;;;;;11.90;99.90;;;;;;13128916;22;20405;-84
2021/04/01 02:04:26;;;;;;;;;;;12.00;99.90;;;;;;13128303;22;19928;-84
2021/04/01 02:09:27;;;;;;;;;;;11.90;99.90;;;;;;13182378;22;19924;-83
2021/04/01 02:14:28;;;;;;;;;;;11.90;99.90;;;;;;13154657;22;19946;-83
2021/04/01 02:19:29;;;;;;;;;;;11.90;99.90;;;;;;13153459;22;19928;-83
2021/04/01 02:24:31;;;;;;;;;;;11.90;99.90;;;;;;13153673;22;20390;-83
2021/04/01 02:29:32;;;;;;;;;;;12.00;99.90;;;;;;13153179;22;20410;-83
2021/04/01 02:34:33;;;;;;;;;;;11.90;99.90;;;;;;13181980;22;19988;-83
2021/04/01 02:39:34;;;;;;;;;;;11.80;99.90;;;;;;13154042;22;19993;-83
2021/04/01 02:44:36;;;;;;;;;;;11.70;99.90;;;;;;13180651;22;20347;-83
2021/04/01 02:49:37;;;;;;;;;;;11.70;99.90;;;;;;13153155;22;19918;-83
2021/04/01 02:54:39;;;;;;;;;;;11.70;99.90;;;;;;13127842;22;19951;-83
2021/04/01 02:59:40;;;;;;;;;;;11.60;99.90;;;;;;13127387;22;19932;-84
2021/04/01 03:04:41;;;;;;;;;;;11.50;99.90;;;;;;13126122;22;20307;-83
2021/04/01 03:09:43;;;;;;;;;;;11.50;99.90;;;;;;13152742;22;19918;-83
2021/04/01 03:14:44;;;;;;;;;;;11.20;99.90;;;;;;13126692;22;20246;-83
2021/04/01 03:19:46;;;;;;;;;;;11.10;99.90;;;;;;13126783;22;20311;-84
2021/04/01 03:24:47;;;;;;;;;;;11.10;99.90;;;;;;13153447;22;20001;-83
2021/04/01 03:30:07;;;;;;;;;;;11.00;99.90;;;;;;13126418;22;20263;-83
2021/04/01 03:35:10;;;;;;;;;;;11.20;99.90;;;;;;13130309;22;20008;-83
2021/04/01 03:40:11;;;;;;;;;;;11.10;99.90;;;;;;13179877;22;20426;-83
2021/04/01 03:45:14;;;;;;;;;;;11.00;99.90;;;;;;13180559;22;20009;-83
2021/04/01 03:50:15;;;;;;;;;;;10.70;99.90;;;;;;13153348;22;19985;-83
2021/04/01 04:00:35;;;;;;;;;;;10.60;99.90;;;;;;13179714;22;20338;-83
2021/04/01 04:16:02;;;;;;;;;;;10.30;99.90;;;;;;13182277;22;19925;-83
2021/04/01 04:21:03;;;;;;;;;;;10.20;99.90;;;;;;13131202;22;20009;-83
2021/04/01 04:26:05;;;;;;;;;;;10.10;99.90;;;;;;13155881;22;20005;-83
2021/04/01 04:31:06;;;;;;;;;;;10.00;99.90;;;;;;13131009;22;19993;-83
2021/04/01 04:36:08;;;;;;;;;;;9.90;99.90;;;;;;13156630;22;19922;-83
2021/04/01 04:41:09;;;;;;;;;;;9.80;99.90;;;;;;13183491;22;19946;-83
2021/04/01 04:46:12;;;;;;;;;;;9.70;99.90;;;;;;13155269;22;19993;-83
2021/04/01 04:51:13;;;;;;;;;;;9.80;99.90;;;;;;13156222;22;19918;-83
2021/04/01 04:56:17;;;;;;;;;;;9.70;99.90;;;;;;13130338;22;19953;-83
2021/04/01 05:11:36;;;;;;;;;;;9.70;99.90;;;;;;13157851;22;19918;-83
2021/04/01 05:16:37;;;;;;;;;;;9.90;99.90;;;;;;13155114;22;19918;-83
2021/04/01 05:31:59;;;;;;;;;;;10.00;99.90;;;;;;13156954;22;19946;-83
2021/04/01 05:37:01;;;;;;;;;;;10.20;99.90;;;;;;13182948;22;19946;-83
2021/04/01 05:42:03;;;;;;;;;;;10.50;99.90;;;;;;13155503;22;19981;-83
2021/04/01 06:02:47;;;;;;;;;;;11.30;99.90;;;;;;13182822;22;19957;-83
2021/04/01 06:07:51;;;;;;;;;;;11.40;99.90;;;;;;13154015;22;19918;-85
2021/04/01 06:12:53;;;;;;;;;;;11.70;99.90;;;;;;13154729;22;19918;-84
2021/04/01 06:18:00;;;;;;;;;;;11.90;99.90;;;;;;13182268;22;19929;-85
2021/04/01 06:23:02;;;;;;;;;;;12.40;99.90;;;;;;13182411;22;20315;-85
2021/04/01 06:28:06;;;;;;;;;;;12.70;99.90;;;;;;13155977;22;19993;-85
2021/04/01 06:33:11;;;;;;;;;;;13.50;99.90;;;;;;13183466;22;19963;-85
2021/04/01 06:43:17;;;;;;;;;;;14.90;99.40;;;;;;13153962;22;20020;-85
2021/04/01 06:48:22;;;;;;;;;;;14.50;99.90;;;;;;13153859;22;19941;-85
2021/04/01 06:53:32;;;;;;;;;;;14.40;99.90;;;;;;13153051;22;20386;-85
2021/04/01 07:04:32;;;;;;;;;;;15.00;99.90;;;;;;13164288;22;20335;-85
2021/04/01 07:09:50;;;;;;;;;;;15.30;99.50;;;;;;13153523;22;19922;-85
2021/04/01 07:15:00;;;;;;;;;;;15.60;99.90;;;;;;13180220;22;20246;-85
2021/04/01 07:30:59;;;;;;;;;;;16.10;98.10;;;;;;13156459;22;19918;-85
2021/04/01 07:44:44;;;;;;;;;;;16.40;97.90;;;;;;13152512;22;20339;-85
2021/04/01 07:46:50;;;;;;;;;;;16.80;96.90;;;;;;13178962;22;20360;-86
2021/04/01 07:57:14;;;;;;;;;;;17.30;95.90;;;;;;13180061;22;19986;-85
2021/04/01 08:02:31;;;;;;;;;;;17.10;95.50;;;;;;13150109;22;20252;-86
2021/04/01 08:07:34;;;;;;;;;;;17.60;94.30;;;;;;13177088;22;20238;-86
2021/04/01 08:12:42;;;;;;;;;;;17.70;94.70;;;;;;13180830;22;19984;-85
2021/04/01 08:17:50;;;;;;;;;;;18.20;93.80;;;;;;13153399;22;19918;-84
2021/04/01 08:23:10;;;;;;;;;;;18.50;92.90;;;;;;13180392;22;19997;-86
2021/04/01 08:28:44;;;;;;;;;;;18.50;92.00;;;;;;13179742;22;19926;-87
2021/04/01 08:39:33;;;;;;;;;;;18.80;90.60;;;;;;13179397;22;19925;-87
2021/04/01 08:45:26;;;;;;;;;;;18.80;89.60;;;;;;13178572;22;20393;-89
2021/04/01 08:50:48;;;;;;;;;;;19.00;82.30;;;;;;13154710;22;19991;-89
2021/04/01 08:55:55;;;;;;;;;;;19.40;83.50;;;;;;13152069;22;19922;-88
2021/04/01 09:01:12;;;;;;;;;;;19.10;80.40;;;;;;13151295;22;19922;-88
2021/04/01 09:06:16;;;;;;;;;;;19.30;80.70;;;;;;13154642;22;19918;-88
2021/04/01 09:11:18;;;;;;;;;;;20.30;79.60;;;;;;13155133;22;19998;-89
2021/04/01 09:16:26;;;;;;;;;;;20.10;77.70;;;;;;13129327;22;19924;-89
2021/04/01 09:21:31;;;;;;;;;;;20.90;80.20;;;;;;13129666;22;19925;-88
2021/04/01 09:26:33;;;;;;;;;;;20.90;72.20;;;;;;13151881;22;19929;-87
2021/04/01 09:31:47;;;;;;;;;;;21.00;76.30;;;;;;13183206;22;20242;-88
2021/04/01 09:36:49;;;;;;;;;;;20.10;71.10;;;;;;13186199;22;19924;-89
2021/04/01 09:41:55;;;;;;;;;;;20.00;71.60;;;;;;13155524;22;20014;-88
2021/04/01 09:46:57;;;;;;;;;;;20.20;68.80;;;;;;13154403;22;20242;-88
2021/04/01 09:51:59;;;;;;;;;;;20.60;71.20;;;;;;13182888;22;19944;-88
2021/04/01 09:57:00;;;;;;;;;;;21.10;68.40;;;;;;13128167;22;20254;-87
2021/04/01 10:02:03;;;;;;;;;;;20.60;68.50;;;;;;13127529;22;20414;-88
2021/04/01 10:07:15;;;;;;;;;;;20.80;68.20;;;;;;13113747;22;19994;-88
2021/04/01 10:12:19;;;;;;;;;;;20.10;65.10;;;;;;13116385;22;20398;-87
2021/04/01 10:17:21;;;;;;;;;;;20.90;71.60;;;;;;13117096;22;19918;-88
2021/04/01 10:22:26;;;;;;;;;;;20.40;70.60;;;;;;13117010;22;20431;-87
2021/04/01 10:27:37;;;;;;;;;;;19.90;73.40;;;;;;13116525;22;19972;-87
2021/04/01 10:32:41;;;;;;;;;;;19.60;69.00;;;;;;13116296;22;19925;-88
2021/04/01 10:37:47;;;;;;;;;;;19.80;73.80;;;;;;13116896;22;19925;-88
2021/04/01 10:42:49;;;;;;;;;;;20.50;73.40;;;;;;13114289;22;19926;-87
2021/04/01 10:47:53;;;;;;;;;;;19.40;71.50;;;;;;13116671;22;19954;-88
2021/04/01 10:52:55;;;;;;;;;;;19.30;73.90;;;;;;13115851;22;20404;-88
2021/04/01 10:58:06;;;;;;;;;;;18.60;73.30;;;;;;13114744;22;20020;-87
2021/04/01 11:03:11;;;;;;;;;;;19.60;75.70;;;;;;13114674;22;19919;-88
2021/04/01 11:08:13;;;;;;;;;;;19.30;72.70;;;;;;13113787;22;19918;-87
2021/04/01 11:13:15;;;;;;;;;;;20.00;73.50;;;;;;13113807;22;19923;-88
2021/04/01 11:18:18;;;;;;;;;;;19.70;69.80;;;;;;13116038;22;19942;-88
2021/04/01 11:23:20;;;;;;;;;;;19.40;70.80;;;;;;13114347;22;20242;-88
2021/04/01 11:28:35;;;;;;;;;;;19.50;70.50;;;;;;13115335;22;20409;-88
2021/04/01 11:33:37;;;;;;;;;;;19.40;68.10;;;;;;13113228;22;20376;-89
2021/04/01 11:38:46;;;;;;;;;;;19.80;70.30;;;;;;13113197;22;19922;-88
2021/04/01 11:43:52;;;;;;;;;;;20.30;72.70;;;;;;13115678;22;19923;-88
2021/04/01 11:48:55;;;;;;;;;;;19.80;75.10;;;;;;13113678;22;19946;-87
2021/04/01 11:53:56;;;;;;;;;;;19.70;70.60;;;;;;13110323;22;19924;-87
2021/04/01 11:59:05;;;;;;;;;;;19.90;71.30;;;;;;13086623;22;20248;-87
2021/04/01 12:04:10;;;;;;;;;;;19.50;71.60;;;;;;13127472;22;20362;-85
2021/04/01 12:09:12;;;;;;;;;;;18.50;73.40;;;;;;13127023;22;19930;-86
2021/04/01 12:14:15;;;;;;;;;;;18.60;74.40;;;;;;13126534;22;20339;-85
2021/04/01 12:19:16;;;;;;;;;;;19.60;79.60;;;;;;13152055;22;19922;-85
2021/04/01 12:24:17;;;;;;;;;;;19.00;73.60;;;;;;13125816;22;20017;-86
2021/04/01 12:29:19;;;;;;;;;;;18.70;75.40;;;;;;13152899;22;19918;-86
2021/04/01 12:34:29;;;;;;;;;;;19.30;77.40;;;;;;13125695;22;19945;-87
2021/04/01 12:39:31;;;;;;;;;;;19.00;78.10;;;;;;13183107;22;19918;-87
2021/04/01 12:44:39;;;;;;;;;;;18.90;76.30;;;;;;13183358;22;20224;-86
2021/04/01 12:49:40;;;;;;;;;;;18.80;76.90;;;;;;13158430;22;20294;-85
2021/04/01 12:54:49;;;;;;;;;;;19.30;79.80;;;;;;13158572;22;19923;-84
2021/04/01 12:59:55;;;;;;;;;;;19.30;80.80;;;;;;13186824;22;19919;-83
2021/04/01 13:04:59;;;;;;;;;;;18.50;80.40;;;;;;13185984;22;19946;-83
2021/04/01 13:15:10;;;;;;;;;;;18.30;78.80;;;;;;13184822;22;19918;-85
2021/04/01 13:20:12;;;;;;;;;;;18.70;78.10;;;;;;13186263;22;19969;-86
2021/04/01 13:25:14;;;;;;;;;;;19.10;79.30;;;;;;13186538;22;19953;-89
2021/04/01 13:30:17;;;;;;;;;;;18.60;77.70;;;;;;13157989;22;19993;-88
2021/04/01 13:40:42;;;;;;;;;;;18.30;76.60;;;;;;13185428;22;19989;-87
2021/04/01 13:45:43;;;;;;;;;;;18.10;82.20;;;;;;13156857;22;20025;-86
2021/04/01 13:50:57;;;;;;;;;;;18.10;84.40;;;;;;13185668;22;19997;-86
2021/04/01 13:56:24;;;;;;;;;;;18.20;85.70;;;;;;13184715;22;19918;-87
2021/04/01 14:12:04;;;;;;;;;;;17.50;83.50;;;;;;13183016;22;20259;-85
2021/04/01 14:17:05;;;;;;;;;;;17.80;80.00;;;;;;13154262;22;19918;-86
2021/04/01 14:22:07;;;;;;;;;;;17.80;76.60;;;;;;13182413;22;19949;-87
2021/04/01 14:27:30;;;;;;;;;;;17.70;73.20;;;;;;13154286;22;19992;-87
2021/04/01 14:32:31;;;;;;;;;;;17.40;70.80;;;;;;13132776;22;19995;-87
2021/04/01 14:37:33;;;;;;;;;;;17.40;65.20;;;;;;13154030;22;19922;-87
2021/04/01 14:42:43;;;;;;;;;;;17.40;76.90;;;;;;13181460;22;19918;-87
2021/04/01 14:47:45;;;;;;;;;;;17.50;72.70;;;;;;13155562;22;20247;-84
2021/04/01 14:52:47;;;;;;;;;;;16.50;59.20;;;;;;13157153;22;19918;-85
2021/04/01 14:57:49;;;;;;;;;;;16.90;65.10;;;;;;13185128;22;19926;-85
2021/04/01 15:02:52;;;;;;;;;;;17.40;59.70;;;;;;13184268;22;19918;-85
2021/04/01 15:07:54;;;;;;;;;;;16.80;61.70;;;;;;13183043;22;19918;-85
2021/04/01 15:12:56;;;;;;;;;;;16.90;59.40;;;;;;13185490;22;19942;-85
2021/04/01 15:17:57;;;;;;;;;;;16.00;62.30;;;;;;13184164;22;19986;-85
2021/04/01 15:22:58;;;;;;;;;;;16.40;63.50;;;;;;13156407;22;19949;-85
2021/04/01 15:28:00;;;;;;;;;;;16.10;59.90;;;;;;13188173;22;19952;-84
2021/04/01 15:33:01;;;;;;;;;;;16.10;62.40;;;;;;13185518;22;19919;-84
2021/04/01 15:38:03;;;;;;;;;;;15.90;61.90;;;;;;13183391;22;19985;-85
2021/04/01 15:43:07;;;;;;;;;;;15.50;63.00;;;;;;13184913;22;19946;-85
2021/04/01 15:48:10;;;;;;;;;;;15.70;60.60;;;;;;13183392;22;19918;-85
2021/04/01 15:53:15;;;;;;;;;;;15.60;59.10;;;;;;13183493;22;19928;-85
2021/04/01 15:58:17;;;;;;;;;;;15.60;61.10;;;;;;13130605;22;19946;-85
2021/04/01 16:03:18;;;;;;;;;;;15.60;66.10;;;;;;13182208;22;19987;-85
2021/04/01 16:08:19;;;;;;;;;;;15.50;67.60;;;;;;13153165;22;19985;-85
2021/04/01 16:13:21;;;;;;;;;;;15.10;65.00;;;;;;13159460;22;19918;-85
2021/04/01 16:18:22;;;;;;;;;;;14.90;67.10;;;;;;13160517;22;19993;-85
2021/04/01 16:23:24;;;;;;;;;;;14.70;67.00;;;;;;13157908;22;20301;-85
2021/04/01 16:28:26;;;;;;;;;;;14.60;66.70;;;;;;13157110;22;19925;-85
2021/04/01 16:33:29;;;;;;;;;;;14.30;69.20;;;;;;13158903;22;19949;-85
2021/04/01 16:38:32;;;;;;;;;;;14.40;67.30;;;;;;13186871;22;19981;-85
2021/04/01 16:43:33;;;;;;;;;;;14.10;68.10;;;;;;13183102;22;20326;-85
2021/04/01 16:48:34;;;;;;;;;;;13.90;70.00;;;;;;13157919;22;19922;-85
2021/04/01 16:53:46;;;;;;;;;;;13.90;71.50;;;;;;13157036;22;19967;-85
2021/04/01 16:58:48;;;;;;;;;;;13.80;72.00;;;;;;13181883;22;19985;-84
2021/04/01 17:04:06;;;;;;;;;;;13.50;71.30;;;;;;13183889;22;19923;-85
2021/04/01 17:09:07;;;;;;;;;;;13.30;72.10;;;;;;13158550;22;19925;-85
2021/04/01 17:14:09;;;;;;;;;;;13.10;73.90;;;;;;13185046;22;19946;-85
2021/04/01 17:19:11;;;;;;;;;;;12.90;74.60;;;;;;13158168;22;19941;-85
2021/04/01 17:24:13;;;;;;;;;;;12.80;82.70;;;;;;13155428;22;19919;-84
2021/04/01 17:29:15;;;;;;;;;;;12.60;80.80;;;;;;13181117;22;19918;-84
2021/04/01 17:34:17;;;;;;;;;;;12.20;83.60;;;;;;13158194;22;19918;-85
2021/04/01 17:39:18;;;;;;;;;;;12.20;87.50;;;;;;13152966;22;19946;-85
2021/04/01 17:44:20;;;;;;;;;;;12.00;88.50;;;;;;13157473;22;19918;-85
2021/04/01 17:49:21;;;;;;;;;;;11.80;90.40;;;;;;13184818;22;19985;-84
2021/04/01 17:54:23;;;;;;;;;;;11.50;90.80;;;;;;13155067;22;19993;-84
2021/04/01 18:22:05;;;;;;;;;;;11.10;91.80;;;;;;13157249;22;19938;-84
2021/04/01 18:26:03;;;;;;;;;;;10.50;93.00;;;;;;13183699;22;19918;-84
2021/04/01 18:31:18;;;;;;;;;;;10.30;92.90;;;;;;13184033;22;19941;-83
2021/04/01 18:36:33;;;;;;;;;;;10.20;93.90;;;;;;13183322;22;19948;-84
2021/04/01 18:41:42;;;;;;;;;;;10.10;94.80;;;;;;13184108;22;19950;-84
2021/04/01 18:46:55;;;;;;;;;;;9.90;95.70;;;;;;13157231;22;20322;-84
2021/04/01 18:52:02;;;;;;;;;;;10.00;96.80;;;;;;13182907;22;19989;-84
2021/04/01 18:57:08;;;;;;;;;;;9.70;97.40;;;;;;13155377;22;19953;-83
2021/04/01 19:02:15;;;;;;;;;;;9.60;98.70;;;;;;13146683;22;20366;-84
2021/04/01 19:07:21;;;;;;;;;;;9.40;99.90;;;;;;13121067;22;19989;-84
2021/04/01 19:22:57;;;;;;;;;;;9.10;99.90;;;;;;13137642;22;19918;-83
2021/04/01 19:27:59;;;;;;;;;;;8.90;99.90;;;;;;13153364;22;19949;-83
2021/04/01 19:33:01;;;;;;;;;;;8.70;99.90;;;;;;13154601;22;19997;-83
2021/04/01 19:38:03;;;;;;;;;;;8.60;99.90;;;;;;13155396;22;19945;-83
2021/04/01 19:43:06;;;;;;;;;;;8.50;99.90;;;;;;13127800;22;19925;-83
2021/04/01 19:48:08;;;;;;;;;;;8.50;99.90;;;;;;13181206;22;20005;-84
2021/04/01 19:53:09;;;;;;;;;;;8.30;99.90;;;;;;13181688;22;19961;-84
2021/04/01 19:58:11;;;;;;;;;;;8.30;99.90;;;;;;13183466;22;19919;-84
2021/04/01 20:03:13;;;;;;;;;;;8.10;99.90;;;;;;13155531;22;19942;-84
2021/04/01 20:08:14;;;;;;;;;;;8.10;99.90;;;;;;13154406;22;19960;-84
2021/04/01 20:13:16;;;;;;;;;;;8.00;99.90;;;;;;13180303;22;19924;-83
2021/04/01 20:18:20;;;;;;;;;;;7.80;99.90;;;;;;13182300;22;20012;-84
2021/04/01 20:23:21;;;;;;;;;;;7.80;99.90;;;;;;13156167;22;19918;-84
2021/04/01 20:28:24;;;;;;;;;;;7.70;99.90;;;;;;13182326;22;20422;-84
2021/04/01 20:33:27;;;;;;;;;;;7.70;99.90;;;;;;13154937;22;19922;-84
2021/04/01 20:38:28;;;;;;;;;;;7.50;99.90;;;;;;13183637;22;19919;-84
2021/04/01 20:43:30;;;;;;;;;;;7.80;99.90;;;;;;13152862;22;19918;-84
2021/04/01 20:48:32;;;;;;;;;;;7.40;99.90;;;;;;13154552;22;19918;-84
2021/04/01 20:53:34;;;;;;;;;;;8.80;99.90;;;;;;13183017;22;19993;-84
2021/04/01 20:58:35;;;;;;;;;;;7.50;99.90;;;;;;13130724;22;19942;-84
2021/04/01 21:03:36;;;;;;;;;;;7.10;99.90;;;;;;13186024;22;19925;-84
2021/04/01 21:08:38;;;;;;;;;;;7.10;99.90;;;;;;13159202;22;19944;-84
2021/04/01 21:13:39;;;;;;;;;;;6.90;99.90;;;;;;13158017;22;20220;-84
2021/04/01 21:18:41;;;;;;;;;;;7.00;99.90;;;;;;13132373;22;20000;-84
2021/04/01 21:23:42;;;;;;;;;;;6.70;99.90;;;;;;13186223;22;19928;-84
2021/04/01 21:28:43;;;;;;;;;;;6.70;99.90;;;;;;13184496;22;19989;-83
2021/04/01 21:33:46;;;;;;;;;;;6.60;99.90;;;;;;13185501;22;19918;-84
2021/04/01 21:38:47;;;;;;;;;;;6.70;99.90;;;;;;13186104;22;19985;-84
2021/04/01 21:43:49;;;;;;;;;;;6.90;99.90;;;;;;13132428;22;19958;-84
2021/04/01 21:48:50;;;;;;;;;;;6.30;99.90;;;;;;13158254;22;19925;-84
2021/04/01 21:53:52;;;;;;;;;;;6.20;99.90;;;;;;13185151;22;19942;-84
2021/04/01 21:58:53;;;;;;;;;;;7.90;99.90;;;;;;13156383;22;19989;-84
2021/04/01 22:03:54;;;;;;;;;;;7.60;99.90;;;;;;13153983;22;19946;-84
2021/04/01 22:08:56;;;;;;;;;;;7.70;99.90;;;;;;13184389;22;19918;-84
2021/04/01 22:13:57;;;;;;;;;;;6.00;99.90;;;;;;13132008;22;19918;-84
2021/04/01 22:18:59;;;;;;;;;;;5.90;99.90;;;;;;13157833;22;19941;-84
2021/04/01 22:24:00;;;;;;;;;;;5.80;99.90;;;;;;13157586;22;19950;-84
2021/04/01 22:29:02;;;;;;;;;;;5.80;99.90;;;;;;13156611;22;19976;-84
2021/04/01 22:34:03;;;;;;;;;;;5.70;99.90;;;;;;13184833;22;19942;-84
2021/04/01 22:39:04;;;;;;;;;;;5.70;99.90;;;;;;13155357;22;19918;-84
2021/04/01 22:44:06;;;;;;;;;;;7.70;99.90;;;;;;13129864;22;19949;-84
2021/04/01 22:49:07;;;;;;;;;;;5.70;99.90;;;;;;13153634;22;20250;-84
2021/04/01 22:54:09;;;;;;;;;;;7.90;99.90;;;;;;13128145;22;19918;-84
2021/04/01 22:59:10;;;;;;;;;;;5.60;99.90;;;;;;13154155;22;19949;-84
2021/04/01 23:04:11;;;;;;;;;;;5.70;99.90;;;;;;13152489;22;20020;-84
2021/04/01 23:09:12;;;;;;;;;;;5.40;99.90;;;;;;13127449;22;19993;-84
2021/04/01 23:14:14;;;;;;;;;;;5.30;99.90;;;;;;13153882;22;19926;-84
2021/04/01 23:19:15;;;;;;;;;;;6.40;99.90;;;;;;13126914;22;20339;-84
2021/04/01 23:24:16;;;;;;;;;;;5.20;99.90;;;;;;13181283;22;19925;-84
2021/04/01 23:29:17;;;;;;;;;;;5.10;99.90;;;;;;13127397;22;19922;-84
2021/04/01 23:34:19;;;;;;;;;;;7.40;99.90;;;;;;13152683;22;20341;-84
2021/04/01 23:39:20;;;;;;;;;;;5.40;99.90;;;;;;13181042;22;19919;-84
2021/04/01 23:44:21;;;;;;;;;;;6.00;99.90;;;;;;13152512;22;19918;-84
2021/04/01 23:49:22;;;;;;;;;;;4.90;99.90;;;;;;13153265;22;19955;-84
2021/04/01 23:54:23;;;;;;;;;;;4.80;99.90;;;;;;13152467;22;20378;-84
2021/04/01 23:59:25;;;;;;;;;;;4.90;99.90;;;;;;13179616;22;20216;-84
